createdAt,value
2019-03-13T00:00:53.542Z,57.63
2019-03-13T00:03:20.687Z,57.45
2019-03-13T00:05:47.766Z,58.31
2019-03-13T00:08:14.844Z,57.88
2019-03-13T00:10:41.911Z,58.05
2019-03-13T00:13:08.968Z,57.94
2019-03-13T00:15:36.031Z,57.62
2019-03-13T00:18:03.209Z,58.11
2019-03-13T00:20:30.287Z,58.55
2019-03-13T00:22:57.349Z,58.76
2019-03-13T00:25:24.506Z,59.35
2019-03-13T00:27:51.571Z,59.81
2019-03-13T00:30:18.732Z,58.97
2019-03-13T00:32:45.790Z,58.21
2019-03-13T00:35:12.957Z,57.95
2019-03-13T00:37:40.012Z,58.01
2019-03-13T00:40:07.111Z,58.42
2019-03-13T00:42:34.172Z,58.71
2019-03-13T00:45:01.232Z,58.72
2019-03-13T00:47:28.311Z,58.25
2019-03-13T00:49:55.363Z,59.32
2019-03-13T00:52:22.451Z,58.62
2019-03-13T00:54:49.517Z,58.93
2019-03-13T00:57:16.567Z,59.05
2019-03-13T00:59:43.615Z,58.83
2019-03-13T01:02:23.006Z,59.26
2019-03-13T01:04:58.528Z,58.41
2019-03-13T01:07:25.588Z,58.59
2019-03-13T01:09:52.641Z,58.91
2019-03-13T01:12:19.712Z,59.61
2019-03-13T01:14:46.783Z,59.06
2019-03-13T01:17:13.851Z,58.97
2019-03-13T01:19:40.904Z,59.22
2019-03-13T01:22:07.951Z,59.59
2019-03-13T01:24:34.999Z,59.57
2019-03-13T01:27:02.066Z,60.28
2019-03-13T01:29:29.122Z,60.02
2019-03-13T01:32:06.899Z,60.67
2019-03-13T01:34:37.059Z,61.06
2019-03-13T01:37:04.121Z,61.05
2019-03-13T01:39:31.174Z,60.33
2019-03-13T01:41:58.253Z,60.75
2019-03-13T01:44:25.311Z,61.24
2019-03-13T01:46:52.363Z,61.26
2019-03-13T01:49:19.630Z,60.45
2019-03-13T01:51:46.724Z,61.46
2019-03-13T01:54:13.775Z,61.63
2019-03-13T01:56:40.828Z,63.64
2019-03-13T01:59:07.919Z,64.17
2019-03-13T02:01:34.979Z,62.90
2019-03-13T02:04:02.028Z,64.02
2019-03-13T02:06:29.075Z,64.62
2019-03-13T02:08:56.123Z,64.66
2019-03-13T02:11:23.194Z,64.62
2019-03-13T02:13:50.247Z,66.16
2019-03-13T02:16:17.302Z,68.03
2019-03-13T02:18:44.367Z,65.61
2019-03-13T02:21:11.475Z,68.29
2019-03-13T02:23:38.530Z,68.25
2019-03-13T02:26:05.592Z,67.72
2019-03-13T02:28:32.648Z,68.12
2019-03-13T02:30:59.702Z,69.28
2019-03-13T02:33:26.801Z,73.29
2019-03-13T02:35:53.834Z,73.05
2019-03-13T02:38:20.939Z,69.17
2019-03-13T02:40:47.970Z,67.76
2019-03-13T02:43:15.077Z,70.38
2019-03-13T02:45:42.138Z,69.64
2019-03-13T02:48:09.200Z,71.42
2019-03-13T02:50:36.258Z,72.47
2019-03-13T02:53:03.335Z,74.40
2019-03-13T02:55:30.394Z,73.25
2019-03-13T02:57:58.503Z,75.20
2019-03-13T03:00:38.645Z,72.49
2019-03-13T03:03:07.503Z,73.17
2019-03-13T03:05:34.572Z,71.31
2019-03-13T03:08:01.736Z,73.07
2019-03-13T03:10:28.848Z,74.09
2019-03-13T03:12:57.743Z,74.87
2019-03-13T03:15:24.870Z,73.58
2019-03-13T03:17:51.923Z,74.17
2019-03-13T03:20:19.217Z,76.27
2019-03-13T03:22:46.511Z,73.69
2019-03-13T03:25:14.036Z,75.45
2019-03-13T03:27:41.096Z,72.76
2019-03-13T03:30:11.388Z,73.60
2019-03-13T03:32:38.441Z,74.99
2019-03-13T03:35:05.517Z,73.52
2019-03-13T03:37:32.562Z,77.27
2019-03-13T03:39:59.621Z,77.06
2019-03-13T03:42:26.681Z,75.40
2019-03-13T03:44:53.750Z,77.38
2019-03-13T03:47:20.800Z,79.03
2019-03-13T03:49:47.869Z,75.02
2019-03-13T03:52:14.979Z,76.31
2019-03-13T03:54:42.048Z,77.12
2019-03-13T03:57:09.150Z,77.06
2019-03-13T03:59:36.408Z,76.77
2019-03-13T04:02:03.473Z,76.18
2019-03-13T04:04:30.658Z,75.62
2019-03-13T04:06:57.712Z,74.27
2019-03-13T04:09:24.791Z,77.11
2019-03-13T04:11:51.863Z,76.40
2019-03-13T04:14:18.944Z,79.38
2019-03-13T04:16:46.015Z,78.55
2019-03-13T04:19:13.064Z,79.80
2019-03-13T04:21:40.129Z,79.55
2019-03-13T04:24:07.201Z,79.53
2019-03-13T04:26:34.273Z,78.78
2019-03-13T04:29:01.337Z,79.32
2019-03-13T04:31:28.404Z,81.61
2019-03-13T04:33:55.465Z,79.16
2019-03-13T04:36:22.529Z,78.60
2019-03-13T04:38:49.601Z,80.75
2019-03-13T04:41:16.661Z,79.03
2019-03-13T04:43:44.820Z,79.59
2019-03-13T04:46:11.879Z,79.49
2019-03-13T04:48:38.968Z,78.40
2019-03-13T04:51:06.022Z,78.70
2019-03-13T04:53:33.077Z,77.82
2019-03-13T04:56:00.150Z,80.31
2019-03-13T04:58:27.210Z,80.37
2019-03-13T05:00:54.269Z,81.26
2019-03-13T05:03:21.336Z,80.60
2019-03-13T05:05:54.190Z,81.76
2019-03-13T05:09:18.132Z,81.23
2019-03-13T05:11:45.216Z,80.11
2019-03-13T05:14:12.283Z,79.10
2019-03-13T05:16:39.344Z,78.43
2019-03-13T05:19:06.408Z,78.89
2019-03-13T05:21:33.467Z,79.29
2019-03-13T05:24:00.525Z,80.35
2019-03-13T05:26:27.576Z,82.30
2019-03-13T05:28:54.648Z,80.47
2019-03-13T05:31:21.712Z,81.89
2019-03-13T05:33:48.776Z,81.94
2019-03-13T05:36:16.977Z,80.13
2019-03-13T05:38:44.304Z,81.70
2019-03-13T05:41:11.368Z,82.56
2019-03-13T05:43:38.443Z,82.99
2019-03-13T05:46:05.521Z,83.46
2019-03-13T05:48:32.585Z,83.12
2019-03-13T05:50:59.641Z,84.48
2019-03-13T05:53:26.712Z,82.20
2019-03-13T05:55:53.811Z,84.64
2019-03-13T05:58:20.907Z,83.79
2019-03-13T06:00:47.964Z,84.73
2019-03-13T06:03:15.030Z,83.81
2019-03-13T06:05:42.089Z,83.31
2019-03-13T06:08:09.181Z,83.34
2019-03-13T06:10:36.252Z,83.54
2019-03-13T06:13:03.313Z,83.71
2019-03-13T06:15:32.831Z,83.34
2019-03-13T06:17:59.912Z,84.66
2019-03-13T06:20:26.992Z,83.88
2019-03-13T06:22:54.022Z,83.12
2019-03-13T06:25:21.064Z,83.57
2019-03-13T06:27:48.145Z,83.65
2019-03-13T06:30:15.207Z,83.29
2019-03-13T06:32:42.281Z,83.04
2019-03-13T06:35:09.550Z,83.57
2019-03-13T06:37:36.608Z,83.41
2019-03-13T06:40:04.644Z,83.21
2019-03-13T06:42:31.698Z,83.90
2019-03-13T06:44:58.825Z,83.89
2019-03-13T06:47:25.919Z,85.04
2019-03-13T06:49:53.000Z,84.32
2019-03-13T06:52:20.066Z,84.82
2019-03-13T06:54:47.158Z,85.26
2019-03-13T06:57:14.218Z,84.78
2019-03-13T06:59:59.662Z,85.17
2019-03-13T07:02:39.097Z,86.05
2019-03-13T07:05:16.443Z,85.41
2019-03-13T07:07:59.421Z,84.57
2019-03-13T07:10:49.251Z,85.49
2019-03-13T07:13:37.015Z,84.89
2019-03-13T07:16:11.760Z,85.00
2019-03-13T07:18:44.233Z,84.79
2019-03-13T07:21:32.283Z,84.46
2019-03-13T07:24:21.849Z,84.79
2019-03-13T07:27:00.010Z,84.70
2019-03-13T07:29:36.533Z,84.78
2019-03-13T07:32:08.918Z,84.87
2019-03-13T07:34:45.482Z,84.97
2019-03-13T07:37:32.124Z,85.21
2019-03-13T07:40:12.029Z,83.33
2019-03-13T07:42:57.353Z,84.47
2019-03-13T07:45:47.044Z,83.74
2019-03-13T07:48:33.691Z,84.50
2019-03-13T07:51:09.350Z,85.25
2019-03-13T07:54:01.800Z,85.04
2019-03-13T07:56:51.083Z,84.98
2019-03-13T07:59:52.838Z,84.22
2019-03-13T08:02:25.402Z,83.46
2019-03-13T08:05:12.074Z,84.87
2019-03-13T08:07:51.484Z,85.86
2019-03-13T08:10:34.583Z,85.83
2019-03-13T08:13:12.721Z,85.36
2019-03-13T08:15:59.808Z,85.50
2019-03-13T08:18:49.308Z,86.32
2019-03-13T08:21:34.573Z,85.63
2019-03-13T08:24:27.244Z,85.59
2019-03-13T08:27:15.159Z,85.17
2019-03-13T08:30:00.470Z,84.59
2019-03-13T08:32:50.295Z,84.86
2019-03-13T08:35:51.938Z,83.54
2019-03-13T08:38:31.823Z,83.85
2019-03-13T08:41:13.103Z,85.32
2019-03-13T08:44:02.884Z,85.15
2019-03-13T08:46:35.068Z,85.15
2019-03-13T08:49:20.366Z,85.02
2019-03-13T08:51:53.828Z,84.94
2019-03-13T08:54:43.431Z,85.79
2019-03-13T08:57:27.260Z,86.21
2019-03-13T09:00:19.744Z,85.71
2019-03-13T09:02:58.136Z,86.08
2019-03-13T09:05:43.541Z,86.45
2019-03-13T09:08:36.522Z,86.52
2019-03-13T09:11:21.823Z,87.01
2019-03-13T09:14:15.193Z,86.77
2019-03-13T09:17:10.858Z,86.88
2019-03-13T09:19:56.320Z,86.40
2019-03-13T09:22:42.884Z,85.60
2019-03-13T09:25:32.220Z,85.33
2019-03-13T09:28:17.619Z,85.56
2019-03-13T09:31:13.458Z,85.18
2019-03-13T09:34:00.100Z,84.95
2019-03-13T09:36:49.493Z,86.04
2019-03-13T09:39:36.957Z,85.70
2019-03-13T09:42:29.325Z,85.91
2019-03-13T09:45:21.757Z,85.59
2019-03-13T09:48:07.332Z,85.62
2019-03-13T09:50:39.232Z,86.44
2019-03-13T09:53:25.879Z,86.49
2019-03-13T09:56:10.053Z,86.08
2019-03-13T09:58:48.610Z,84.92
2019-03-13T10:01:38.980Z,84.90
2019-03-13T10:04:22.784Z,84.69
2019-03-13T10:07:03.234Z,85.39
2019-03-13T10:09:49.884Z,85.06
2019-03-13T10:12:39.569Z,85.75
2019-03-13T10:15:23.203Z,84.67
2019-03-13T10:17:57.212Z,84.96
2019-03-13T10:20:35.633Z,85.23
2019-03-13T10:23:18.542Z,84.97
2019-03-13T10:25:53.580Z,84.84
2019-03-13T10:28:58.459Z,84.64
2019-03-13T10:31:46.485Z,84.91
2019-03-13T10:34:29.021Z,85.22
2019-03-13T10:37:18.542Z,84.61
2019-03-13T10:39:56.859Z,83.98
2019-03-13T10:42:40.236Z,84.21
2019-03-13T10:45:16.143Z,83.45
2019-03-13T10:47:54.973Z,83.33
2019-03-13T10:50:41.566Z,83.78
2019-03-13T10:53:31.049Z,83.86
2019-03-13T10:56:35.868Z,84.08
2019-03-13T10:59:21.505Z,84.43
2019-03-13T11:02:14.208Z,83.77
2019-03-13T11:05:03.662Z,83.75
2019-03-13T11:07:50.315Z,84.51
2019-03-13T11:10:29.085Z,85.12
2019-03-13T11:13:06.222Z,84.68
2019-03-13T11:15:52.875Z,84.68
2019-03-13T11:18:27.747Z,84.22
2019-03-13T11:21:03.928Z,85.11
2019-03-13T11:23:49.157Z,84.94
2019-03-13T11:26:48.049Z,84.46
2019-03-13T11:29:21.180Z,85.03
2019-03-13T11:32:10.846Z,85.67
2019-03-13T11:34:53.874Z,86.07
2019-03-13T11:37:46.696Z,86.02
2019-03-13T11:40:23.913Z,86.40
2019-03-13T11:43:10.605Z,86.57
2019-03-13T11:45:55.007Z,86.35
2019-03-13T11:48:41.716Z,85.87
2019-03-13T11:51:20.204Z,86.09
2019-03-13T11:54:06.835Z,85.45
2019-03-13T11:56:59.664Z,85.48
2019-03-13T11:59:40.364Z,85.65
2019-03-13T12:02:33.201Z,85.77
2019-03-13T12:05:13.242Z,85.72
2019-03-13T12:07:48.895Z,85.24
2019-03-13T12:10:35.533Z,85.32
2019-03-13T12:13:12.685Z,85.75
2019-03-13T12:15:46.736Z,85.80
2019-03-13T12:18:36.604Z,86.22
2019-03-13T12:21:29.196Z,86.18
2019-03-13T12:24:18.873Z,86.67
2019-03-13T12:27:04.204Z,86.63
2019-03-13T12:30:02.951Z,86.56
2019-03-13T12:32:58.686Z,86.48
2019-03-13T12:35:51.355Z,86.51
2019-03-13T12:38:42.154Z,86.98
2019-03-13T12:41:27.601Z,87.13
2019-03-13T12:44:08.839Z,87.43
2019-03-13T12:47:04.606Z,87.51
2019-03-13T12:49:45.006Z,87.28
2019-03-13T12:52:43.763Z,86.83
2019-03-13T12:55:28.390Z,86.40
2019-03-13T12:58:12.224Z,85.99
2019-03-13T13:00:53.182Z,85.12
2019-03-13T13:03:48.933Z,86.11
2019-03-13T13:06:28.124Z,86.18
2019-03-13T13:09:20.573Z,86.68
2019-03-13T13:12:07.248Z,86.45
2019-03-13T13:14:56.932Z,86.28
2019-03-13T13:17:34.036Z,86.38
2019-03-13T13:20:01.091Z,86.96
2019-03-13T13:22:28.155Z,87.09
2019-03-13T13:24:55.228Z,87.51
2019-03-13T13:27:22.280Z,87.25
2019-03-13T13:29:49.392Z,87.56
2019-03-13T13:32:16.483Z,87.52
2019-03-13T13:34:43.555Z,87.56
2019-03-13T13:37:10.628Z,87.28
2019-03-13T13:39:37.711Z,86.85
2019-03-13T13:42:04.871Z,87.16
2019-03-13T13:44:32.280Z,87.11
2019-03-13T13:46:59.353Z,87.42
2019-03-13T13:49:26.452Z,87.16
2019-03-13T13:51:53.520Z,87.16
2019-03-13T13:54:20.620Z,87.01
2019-03-13T13:56:47.692Z,86.71
2019-03-13T13:59:14.768Z,86.72
2019-03-13T14:01:41.839Z,86.40
2019-03-13T14:04:08.916Z,86.37
2019-03-13T14:06:35.968Z,86.46
2019-03-13T14:09:04.413Z,86.79
2019-03-13T14:11:31.479Z,86.62
2019-03-13T14:13:58.554Z,86.95
2019-03-13T14:16:25.681Z,85.38
2019-03-13T14:18:52.742Z,86.01
2019-03-13T14:21:19.840Z,86.44
2019-03-13T14:23:50.122Z,86.22
2019-03-13T14:26:17.281Z,86.59
2019-03-13T14:28:44.351Z,86.65
2019-03-13T14:31:11.416Z,86.31
2019-03-13T14:33:40.196Z,85.97
2019-03-13T14:36:07.278Z,86.14
2019-03-13T14:38:34.363Z,85.99
2019-03-13T14:41:01.426Z,86.13
2019-03-13T14:43:28.492Z,86.18
2019-03-13T14:45:55.567Z,85.96
2019-03-13T14:48:22.764Z,85.88
2019-03-13T14:50:49.857Z,85.63
2019-03-13T14:53:16.919Z,85.25
2019-03-13T14:55:43.984Z,85.47
2019-03-13T14:58:11.123Z,85.28
2019-03-13T15:00:38.208Z,85.12
2019-03-13T15:03:05.445Z,85.07
2019-03-13T15:05:32.617Z,85.29
2019-03-13T15:07:59.709Z,84.97
2019-03-13T15:10:26.768Z,85.11
2019-03-13T15:12:53.855Z,85.10
2019-03-13T15:15:20.974Z,85.21
2019-03-13T15:17:48.108Z,84.72
2019-03-13T15:20:15.268Z,84.53
2019-03-13T15:22:42.340Z,84.50
2019-03-13T15:25:09.942Z,84.42
2019-03-13T15:27:37.020Z,84.38
2019-03-13T15:30:05.829Z,83.97
2019-03-13T15:32:32.904Z,83.97
2019-03-13T15:34:59.967Z,84.33
2019-03-13T15:37:27.028Z,84.33
2019-03-13T15:39:54.111Z,84.59
2019-03-13T15:42:21.282Z,84.76
2019-03-13T15:44:48.338Z,84.21
2019-03-13T15:47:15.435Z,83.90
2019-03-13T15:49:42.505Z,83.69
2019-03-13T15:52:09.575Z,84.04
2019-03-13T15:54:36.684Z,84.27
2019-03-13T15:57:03.747Z,84.45
2019-03-13T15:59:30.831Z,84.19
2019-03-13T16:01:57.906Z,83.75
2019-03-13T16:04:24.968Z,83.45
2019-03-13T16:06:52.057Z,83.49
2019-03-13T16:09:19.119Z,83.86
2019-03-13T16:11:46.223Z,83.99
2019-03-13T16:14:13.304Z,84.75
2019-03-13T16:16:40.365Z,85.05
2019-03-13T16:19:07.422Z,84.90
2019-03-13T16:21:34.512Z,84.58
2019-03-13T16:24:01.599Z,84.41
2019-03-13T16:26:28.650Z,84.33
2019-03-13T16:28:55.708Z,84.09
2019-03-13T16:31:22.795Z,83.80
2019-03-13T16:33:49.880Z,83.34
2019-03-13T16:36:16.966Z,83.54
2019-03-13T16:38:44.027Z,83.21
2019-03-13T16:41:11.090Z,83.06
2019-03-13T16:43:38.258Z,82.93
2019-03-13T16:46:05.328Z,83.00
2019-03-13T16:48:32.392Z,83.21
2019-03-13T16:50:59.489Z,83.28
2019-03-13T16:53:26.547Z,83.05
2019-03-13T16:55:53.779Z,82.88
2019-03-13T16:58:20.843Z,83.07
2019-03-13T17:00:50.429Z,82.80
2019-03-13T17:03:16.918Z,83.29
2019-03-13T17:05:43.974Z,83.90
2019-03-13T17:08:11.051Z,84.06
2019-03-13T17:10:38.135Z,84.21
2019-03-13T17:13:05.802Z,83.66
2019-03-13T17:15:33.175Z,83.69
2019-03-13T17:18:00.246Z,83.49
2019-03-13T17:20:27.376Z,83.18
2019-03-13T17:22:54.427Z,82.95
2019-03-13T17:25:21.498Z,82.98
2019-03-13T17:27:48.689Z,83.49
2019-03-13T17:30:20.772Z,83.28
2019-03-13T17:32:48.192Z,83.08
2019-03-13T17:35:15.384Z,83.16
2019-03-13T17:37:42.440Z,82.87
2019-03-13T17:40:11.855Z,83.13
2019-03-13T17:42:38.902Z,83.13
2019-03-13T17:45:07.576Z,83.26
2019-03-13T17:47:34.660Z,83.46
2019-03-13T17:50:01.731Z,83.58
2019-03-13T17:52:28.867Z,83.54
2019-03-13T17:54:55.959Z,84.24
2019-03-13T17:57:23.021Z,83.68
2019-03-13T17:59:50.109Z,83.28
2019-03-13T18:02:17.172Z,83.93
2019-03-13T18:04:44.237Z,84.02
2019-03-13T18:07:11.303Z,84.17
2019-03-13T18:09:38.427Z,84.13
2019-03-13T18:12:05.485Z,83.80
2019-03-13T18:14:32.548Z,83.38
2019-03-13T18:16:59.634Z,83.26
2019-03-13T18:19:26.738Z,83.20
2019-03-13T18:21:54.152Z,82.87
2019-03-13T18:24:21.262Z,83.45
2019-03-13T18:26:48.380Z,83.40
2019-03-13T18:29:15.514Z,83.78
2019-03-13T18:31:42.585Z,84.23
2019-03-13T18:34:09.661Z,84.54
2019-03-13T18:36:36.806Z,84.40
2019-03-13T18:39:04.329Z,84.30
2019-03-13T18:41:31.480Z,83.84
2019-03-13T18:43:58.549Z,83.66
2019-03-13T18:46:25.611Z,83.46
2019-03-13T18:48:52.699Z,83.82
2019-03-13T18:51:19.912Z,83.70
2019-03-13T18:53:46.982Z,84.55
2019-03-13T18:56:14.071Z,84.40
2019-03-13T18:58:43.863Z,84.71
2019-03-13T19:01:23.883Z,84.75
2019-03-13T19:03:50.983Z,84.30
2019-03-13T19:06:18.098Z,84.69
2019-03-13T19:08:45.195Z,84.71
2019-03-13T19:11:12.311Z,84.43
2019-03-13T19:13:39.376Z,84.43
2019-03-13T19:16:06.458Z,84.13
2019-03-13T19:18:33.518Z,83.71
2019-03-13T19:21:00.691Z,84.41
2019-03-13T19:23:27.754Z,85.11
2019-03-13T19:25:54.944Z,84.74
2019-03-13T19:28:22.032Z,84.94
2019-03-13T19:30:49.174Z,84.90
2019-03-13T19:33:16.192Z,84.95
2019-03-13T19:35:43.286Z,85.16
2019-03-13T19:38:10.396Z,85.96
2019-03-13T19:40:37.487Z,85.54
2019-03-13T19:43:04.549Z,85.46
2019-03-13T19:45:36.715Z,85.33
2019-03-13T19:48:03.997Z,85.06
2019-03-13T19:50:31.070Z,85.08
2019-03-13T19:52:58.151Z,85.00
2019-03-13T19:55:25.225Z,85.01
2019-03-13T19:57:52.304Z,84.97
2019-03-13T20:00:20.681Z,84.98
2019-03-13T20:02:59.330Z,84.46
2019-03-13T20:05:16.752Z,84.43
2019-03-13T20:07:44.037Z,84.36
2019-03-13T20:10:16.619Z,84.46
2019-03-13T20:12:43.703Z,83.95
2019-03-13T20:15:12.864Z,83.82
2019-03-13T20:17:41.745Z,83.79
2019-03-13T20:20:10.049Z,84.18
2019-03-13T20:22:37.111Z,83.95
2019-03-13T20:25:04.649Z,83.70
2019-03-13T20:27:31.719Z,83.61
2019-03-13T20:29:58.903Z,83.73
2019-03-13T20:32:26.005Z,84.00
2019-03-13T20:34:53.347Z,84.37
2019-03-13T20:37:20.532Z,84.02
2019-03-13T20:39:47.599Z,83.70
2019-03-13T20:42:14.653Z,83.60
2019-03-13T20:44:41.807Z,83.62
2019-03-13T20:47:08.942Z,83.41
2019-03-13T20:49:36.106Z,83.77
2019-03-13T20:52:03.179Z,83.60
2019-03-13T20:54:30.313Z,83.39
2019-03-13T20:56:57.482Z,83.51
2019-03-13T20:59:24.553Z,83.76
2019-03-13T21:01:51.684Z,83.64
2019-03-13T21:04:18.758Z,84.44
2019-03-13T21:06:45.831Z,84.20
2019-03-13T21:09:13.006Z,83.89
2019-03-13T21:11:44.482Z,84.32
2019-03-13T21:14:11.545Z,84.47
2019-03-13T21:16:38.635Z,83.76
2019-03-13T21:19:05.720Z,83.28
2019-03-13T21:21:35.571Z,83.12
2019-03-13T21:24:02.762Z,82.95
2019-03-13T21:26:29.815Z,82.91
2019-03-13T21:28:56.893Z,82.82
2019-03-13T21:31:23.968Z,82.83
2019-03-13T21:33:51.047Z,82.87
2019-03-13T21:36:18.218Z,82.83
2019-03-13T21:38:51.342Z,82.80
2019-03-13T21:41:18.548Z,82.76
2019-03-13T21:43:45.609Z,82.70
2019-03-13T21:46:12.680Z,82.66
2019-03-13T21:48:39.785Z,82.62
2019-03-13T21:51:09.310Z,82.67
2019-03-13T21:53:36.375Z,82.67
2019-03-13T21:56:03.457Z,82.66
2019-03-13T21:58:30.523Z,82.80
2019-03-13T22:00:57.595Z,82.80
2019-03-13T22:03:29.817Z,82.72
2019-03-13T22:05:53.647Z,82.65
2019-03-13T22:08:20.688Z,82.61
2019-03-13T22:10:47.750Z,82.58
2019-03-13T22:13:14.811Z,82.57
2019-03-13T22:15:41.872Z,82.83
2019-03-13T22:18:08.943Z,82.67
2019-03-13T22:20:36.008Z,82.64
2019-03-13T22:23:03.092Z,82.80
2019-03-13T22:25:30.168Z,82.68
2019-03-13T22:27:57.259Z,82.76
2019-03-13T22:30:32.651Z,82.93
2019-03-13T22:32:59.706Z,82.87
2019-03-13T22:35:26.802Z,83.16
2019-03-13T22:37:53.869Z,82.75
2019-03-13T22:40:21.065Z,83.03
2019-03-13T22:42:48.136Z,82.80
2019-03-13T22:45:15.493Z,82.84
2019-03-13T22:47:43.393Z,82.68
2019-03-13T22:50:13.164Z,83.09
2019-03-13T22:52:40.222Z,82.89
2019-03-13T22:55:07.402Z,82.75
2019-03-13T22:57:34.488Z,83.01
2019-03-13T23:00:01.548Z,82.91
2019-03-13T23:02:28.732Z,83.48
2019-03-13T23:04:56.213Z,83.64
2019-03-13T23:07:23.272Z,83.07
2019-03-13T23:09:50.358Z,82.73
2019-03-13T23:12:17.421Z,82.62
2019-03-13T23:14:44.523Z,83.13
2019-03-13T23:17:11.583Z,83.19
2019-03-13T23:19:38.644Z,83.19
2019-03-13T23:22:05.731Z,83.70
2019-03-13T23:24:32.835Z,84.26
2019-03-13T23:26:59.913Z,84.17
2019-03-13T23:29:26.979Z,84.08
2019-03-13T23:31:54.042Z,84.13
2019-03-13T23:34:21.099Z,84.66
2019-03-13T23:36:48.195Z,84.44
2019-03-13T23:39:15.293Z,84.29
2019-03-13T23:41:42.397Z,84.14
2019-03-13T23:44:09.457Z,83.82
2019-03-13T23:46:36.530Z,83.65
2019-03-13T23:49:03.630Z,84.09
2019-03-13T23:51:30.685Z,83.54
2019-03-13T23:53:57.740Z,83.57
2019-03-13T23:56:27.628Z,83.79
2019-03-13T23:58:54.709Z,83.52
